sensor_id;sensor_type;location;lat;lon;timestamp;temperature;humidity
50957;DHT22;55361;50.876;20.634;2022-07-17T00:00:10;22;73
50957;DHT22;55361;50.876;20.634;2022-07-17T00:07:04;22;73
50957;DHT22;55361;50.876;20.634;2022-07-17T00:14:17;22;73
50957;DHT22;55361;50.876;20.634;2022-07-17T00:21:02;22;73
50957;DHT22;55361;50.876;20.634;2022-07-17T00:28:17;22;73
50957;DHT22;55361;50.876;20.634;2022-07-17T00:35:19;22;74
50957;DHT22;55361;50.876;20.634;2022-07-17T00:42:04;22;74
50957;DHT22;55361;50.876;20.634;2022-07-17T00:49:07;22;74
50957;DHT22;55361;50.876;20.634;2022-07-17T00:56:31;22;74
50957;DHT22;55361;50.876;20.634;2022-07-17T01:00:22;22;74
50957;DHT22;55361;50.876;20.634;2022-07-17T01:07:12;22;74
50957;DHT22;55361;50.876;20.634;2022-07-17T01:14:02;22;74
50957;DHT22;55361;50.876;20.634;2022-07-17T01:21:22;22;74
50957;DHT22;55361;50.876;20.634;2022-07-17T01:28:05;22;74
50957;DHT22;55361;50.876;20.634;2022-07-17T01:35:13;25.56;79
50957;DHT22;55361;50.876;20.634;2022-07-17T01:42:03;25.56;79
50957;DHT22;55361;50.876;20.634;2022-07-17T01:49:03;25.56;79
50957;DHT22;55361;50.876;20.634;2022-07-17T01:56:05;25.56;79
50957;DHT22;55361;50.876;20.634;2022-07-17T02:00:24;25.56;79
50957;DHT22;55361;50.876;20.634;2022-07-17T02:07:20;22.42;77
50957;DHT22;55361;50.876;20.634;2022-07-17T02:14:03;22.42;77
50957;DHT22;55361;50.876;20.634;2022-07-17T02:21:02;22.42;77
50957;DHT22;55361;50.876;20.634;2022-07-17T02:28:05;22.42;77
50957;DHT22;55361;50.876;20.634;2022-07-17T02:35:26;25;84
50957;DHT22;55361;50.876;20.634;2022-07-17T02:42:02;25;84
50957;DHT22;55361;50.876;20.634;2022-07-17T02:49:02;25;84
50957;DHT22;55361;50.876;20.634;2022-07-17T02:56:16;25;84
50957;DHT22;55361;50.876;20.634;2022-07-17T03:00:33;25;84
50957;DHT22;55361;50.876;20.634;2022-07-17T03:07:05;24.72;83
50957;DHT22;55361;50.876;20.634;2022-07-17T03:14:16;24.72;83
50957;DHT22;55361;50.876;20.634;2022-07-17T03:21:05;24.72;83
50957;DHT22;55361;50.876;20.634;2022-07-17T03:28:04;24.72;83
50957;DHT22;55361;50.876;20.634;2022-07-17T03:35:21;24;85
50957;DHT22;55361;50.876;20.634;2022-07-17T03:42:15;24;85
50957;DHT22;55361;50.876;20.634;2022-07-17T03:49:22;24;85
50957;DHT22;55361;50.876;20.634;2022-07-17T03:56:20;24;85
50957;DHT22;55361;50.876;20.634;2022-07-17T04:00:18;24;85
50957;DHT22;55361;50.876;20.634;2022-07-17T04:07:05;23;87
50957;DHT22;55361;50.876;20.634;2022-07-17T04:14:02;23;87
50957;DHT22;55361;50.876;20.634;2022-07-17T04:21:06;23;87
50957;DHT22;55361;50.876;20.634;2022-07-17T04:28:17;23;87
50957;DHT22;55361;50.876;20.634;2022-07-17T04:35:09;23;89
50957;DHT22;55361;50.876;20.634;2022-07-17T04:42:16;23;89
50957;DHT22;55361;50.876;20.634;2022-07-17T04:49:22;23;89
50957;DHT22;55361;50.876;20.634;2022-07-17T04:56:15;23;89
50957;DHT22;55361;50.876;20.634;2022-07-17T05:00:20;23;89
50957;DHT22;55361;50.876;20.634;2022-07-17T05:07:02;23;90
50957;DHT22;55361;50.876;20.634;2022-07-17T05:14:03;23;90
50957;DHT22;55361;50.876;20.634;2022-07-17T05:21:16;23;90
50957;DHT22;55361;50.876;20.634;2022-07-17T05:28:16;23;90
50957;DHT22;55361;50.876;20.634;2022-07-17T05:35:07;23;91
50957;DHT22;55361;50.876;20.634;2022-07-17T05:42:15;23;91
50957;DHT22;55361;50.876;20.634;2022-07-17T05:49:03;23;91
50957;DHT22;55361;50.876;20.634;2022-07-17T05:56:02;23;91
50957;DHT22;55361;50.876;20.634;2022-07-17T06:00:11;23;91
50957;DHT22;55361;50.876;20.634;2022-07-17T06:07:19;23;89
50957;DHT22;55361;50.876;20.634;2022-07-17T06:14:18;23;89
50957;DHT22;55361;50.876;20.634;2022-07-17T06:21:18;23;89
50957;DHT22;55361;50.876;20.634;2022-07-17T06:28:02;23;89
50957;DHT22;55361;50.876;20.634;2022-07-17T06:35:09;23;90
50957;DHT22;55361;50.876;20.634;2022-07-17T06:42:06;23;90
50957;DHT22;55361;50.876;20.634;2022-07-17T06:49:23;23;90
50957;DHT22;55361;50.876;20.634;2022-07-17T06:56:19;23;90
50957;DHT22;55361;50.876;20.634;2022-07-17T07:00:24;23;90
50957;DHT22;55361;50.876;20.634;2022-07-17T07:07:16;23;90
50957;DHT22;55361;50.876;20.634;2022-07-17T07:14:05;23;90
50957;DHT22;55361;50.876;20.634;2022-07-17T07:21:05;23;90
50957;DHT22;55361;50.876;20.634;2022-07-17T07:28:07;23;90
50957;DHT22;55361;50.876;20.634;2022-07-17T07:35:11;23;90
50957;DHT22;55361;50.876;20.634;2022-07-17T07:42:03;23;90
50957;DHT22;55361;50.876;20.634;2022-07-17T07:49:05;23;90
50957;DHT22;55361;50.876;20.634;2022-07-17T07:56:17;23;90
50957;DHT22;55361;50.876;20.634;2022-07-17T08:00:02;23;90
50957;DHT22;55361;50.876;20.634;2022-07-17T08:14:04;23;90
50957;DHT22;55361;50.876;20.634;2022-07-17T08:21:18;23;90
50957;DHT22;55361;50.876;20.634;2022-07-17T08:28:04;23;90
50957;DHT22;55361;50.876;20.634;2022-07-17T08:42:12;23;90
50957;DHT22;55361;50.876;20.634;2022-07-17T08:49:24;23;90
50957;DHT22;55361;50.876;20.634;2022-07-17T08:56:04;23;90
50957;DHT22;55361;50.876;20.634;2022-07-17T09:00:28;23;90
50957;DHT22;55361;50.876;20.634;2022-07-17T09:14:02;22;91
50957;DHT22;55361;50.876;20.634;2022-07-17T09:21:19;22;91
50957;DHT22;55361;50.876;20.634;2022-07-17T09:28:07;22;91
50957;DHT22;55361;50.876;20.634;2022-07-17T09:35:17;22;91
50957;DHT22;55361;50.876;20.634;2022-07-17T09:42:09;22;91
50957;DHT22;55361;50.876;20.634;2022-07-17T09:49:30;22;91
50957;DHT22;55361;50.876;20.634;2022-07-17T09:56:03;22;91
50957;DHT22;55361;50.876;20.634;2022-07-17T10:00:15;22;91
50957;DHT22;55361;50.876;20.634;2022-07-17T10:14:09;22;92
50957;DHT22;55361;50.876;20.634;2022-07-17T10:21:30;22;92
50957;DHT22;55361;50.876;20.634;2022-07-17T10:28:17;22;92
50957;DHT22;55361;50.876;20.634;2022-07-17T10:35:13;22;92
50957;DHT22;55361;50.876;20.634;2022-07-17T10:42:36;22;92
50957;DHT22;55361;50.876;20.634;2022-07-17T10:49:33;22;92
50957;DHT22;55361;50.876;20.634;2022-07-17T10:56:21;22;92
50957;DHT22;55361;50.876;20.634;2022-07-17T11:00:01;22;92
50957;DHT22;55361;50.876;20.634;2022-07-17T11:14:27;22;92
50957;DHT22;55361;50.876;20.634;2022-07-17T11:21:04;22;92
50957;DHT22;55361;50.876;20.634;2022-07-17T11:28:05;22;92
50957;DHT22;55361;50.876;20.634;2022-07-17T11:35:15;22;92
50957;DHT22;55361;50.876;20.634;2022-07-17T11:42:03;22;93
50957;DHT22;55361;50.876;20.634;2022-07-17T11:49:02;22;93
50957;DHT22;55361;50.876;20.634;2022-07-17T11:56:20;22;93
50957;DHT22;55361;50.876;20.634;2022-07-17T12:00:12;22;93
50957;DHT22;55361;50.876;20.634;2022-07-17T12:14:18;22;93
50957;DHT22;55361;50.876;20.634;2022-07-17T12:21:07;22;93
50957;DHT22;55361;50.876;20.634;2022-07-17T12:28:17;22;93
50957;DHT22;55361;50.876;20.634;2022-07-17T12:35:15;22;93
50957;DHT22;55361;50.876;20.634;2022-07-17T12:42:21;23;92
50957;DHT22;55361;50.876;20.634;2022-07-17T12:49:02;23;92
50957;DHT22;55361;50.876;20.634;2022-07-17T12:56:04;23;92
50957;DHT22;55361;50.876;20.634;2022-07-17T13:00:25;23;92
50957;DHT22;55361;50.876;20.634;2022-07-17T13:14:01;24;89
50957;DHT22;55361;50.876;20.634;2022-07-17T13:21:02;24;89
50957;DHT22;55361;50.876;20.634;2022-07-17T13:28:30;24;89
50957;DHT22;55361;50.876;20.634;2022-07-17T13:35:07;24;89
50957;DHT22;55361;50.876;20.634;2022-07-17T13:42:13;23;90
50957;DHT22;55361;50.876;20.634;2022-07-17T13:49:06;23;90
50957;DHT22;55361;50.876;20.634;2022-07-17T13:56:04;23;90
50957;DHT22;55361;50.876;20.634;2022-07-17T14:00:08;23;90
50957;DHT22;55361;50.876;20.634;2022-07-17T14:07:19;23;90
50957;DHT22;55361;50.876;20.634;2022-07-17T14:14:05;21;97
50957;DHT22;55361;50.876;20.634;2022-07-17T14:21:19;21;97
50957;DHT22;55361;50.876;20.634;2022-07-17T14:28:17;21;97
50957;DHT22;55361;50.876;20.634;2022-07-17T14:35:05;21;97
50957;DHT22;55361;50.876;20.634;2022-07-17T14:42:16;21;97
50957;DHT22;55361;50.876;20.634;2022-07-17T14:49:19;21;97
50957;DHT22;55361;50.876;20.634;2022-07-17T14:56:17;21;97
50957;DHT22;55361;50.876;20.634;2022-07-17T15:00:15;21;97
50957;DHT22;55361;50.876;20.634;2022-07-17T15:07:07;21;97
50957;DHT22;55361;50.876;20.634;2022-07-17T15:14:20;21;97
50957;DHT22;55361;50.876;20.634;2022-07-17T15:21:18;21;97
50957;DHT22;55361;50.876;20.634;2022-07-17T15:28:16;21;97
50957;DHT22;55361;50.876;20.634;2022-07-17T15:35:18;21;97
50957;DHT22;55361;50.876;20.634;2022-07-17T15:42:14;22;97
50957;DHT22;55361;50.876;20.634;2022-07-17T15:49:03;22;97
50957;DHT22;55361;50.876;20.634;2022-07-17T15:56:04;22;97
50957;DHT22;55361;50.876;20.634;2022-07-17T16:00:14;22;97
50957;DHT22;55361;50.876;20.634;2022-07-17T16:07:03;22;97
50957;DHT22;55361;50.876;20.634;2022-07-17T16:14:16;22;97
50957;DHT22;55361;50.876;20.634;2022-07-17T16:21:06;22;97
50957;DHT22;55361;50.876;20.634;2022-07-17T16:28:18;22;97
50957;DHT22;55361;50.876;20.634;2022-07-17T16:35:10;22;97
50957;DHT22;55361;50.876;20.634;2022-07-17T16:42:04;23;97
50957;DHT22;55361;50.876;20.634;2022-07-17T16:49:02;23;97
50957;DHT22;55361;50.876;20.634;2022-07-17T16:56:15;23;97
50957;DHT22;55361;50.876;20.634;2022-07-17T17:00:03;23;97
50957;DHT22;55361;50.876;20.634;2022-07-17T17:07:18;23;97
50957;DHT22;55361;50.876;20.634;2022-07-17T17:21:22;23;97
50957;DHT22;55361;50.876;20.634;2022-07-17T17:28:16;23;97
50957;DHT22;55361;50.876;20.634;2022-07-17T17:35:16;23;97
50957;DHT22;55361;50.876;20.634;2022-07-17T17:49:05;22;97
50957;DHT22;55361;50.876;20.634;2022-07-17T17:56:16;22;97
50957;DHT22;55361;50.876;20.634;2022-07-17T18:00:10;22;97
50957;DHT22;55361;50.876;20.634;2022-07-17T18:07:09;22;97
50957;DHT22;55361;50.876;20.634;2022-07-17T18:21:03;23;97
50957;DHT22;55361;50.876;20.634;2022-07-17T18:28:25;23;97
50957;DHT22;55361;50.876;20.634;2022-07-17T18:35:08;23;97
50957;DHT22;55361;50.876;20.634;2022-07-17T18:49:26;23;94
50957;DHT22;55361;50.876;20.634;2022-07-17T18:56:04;23;94
50957;DHT22;55361;50.876;20.634;2022-07-17T19:00:18;23;94
50957;DHT22;55361;50.876;20.634;2022-07-17T19:07:24;23;94
50957;DHT22;55361;50.876;20.634;2022-07-17T19:21:20;23;94
50957;DHT22;55361;50.876;20.634;2022-07-17T19:28:24;23;94
50957;DHT22;55361;50.876;20.634;2022-07-17T19:35:23;23;94
50957;DHT22;55361;50.876;20.634;2022-07-17T19:49:20;22;92
50957;DHT22;55361;50.876;20.634;2022-07-17T19:56:22;22;92
50957;DHT22;55361;50.876;20.634;2022-07-17T20:00:20;22;92
50957;DHT22;55361;50.876;20.634;2022-07-17T20:07:13;22;92
50957;DHT22;55361;50.876;20.634;2022-07-17T20:21:17;22;91
50957;DHT22;55361;50.876;20.634;2022-07-17T20:28:05;22;91
50957;DHT22;55361;50.876;20.634;2022-07-17T20:35:21;22;91
50957;DHT22;55361;50.876;20.634;2022-07-17T20:49:21;22;91
50957;DHT22;55361;50.876;20.634;2022-07-17T20:56:07;22;91
50957;DHT22;55361;50.876;20.634;2022-07-17T21:00:13;22;91
50957;DHT22;55361;50.876;20.634;2022-07-17T21:07:04;22;91
50957;DHT22;55361;50.876;20.634;2022-07-17T21:21:14;23;92
50957;DHT22;55361;50.876;20.634;2022-07-17T21:28:08;23;92
50957;DHT22;55361;50.876;20.634;2022-07-17T21:35:06;23;92
50957;DHT22;55361;50.876;20.634;2022-07-17T21:49:04;23;93
50957;DHT22;55361;50.876;20.634;2022-07-17T21:56:17;23;93
50957;DHT22;55361;50.876;20.634;2022-07-17T22:00:22;23;93
50957;DHT22;55361;50.876;20.634;2022-07-17T22:07:11;23;93
50957;DHT22;55361;50.876;20.634;2022-07-17T22:14:12;23;93
50957;DHT22;55361;50.876;20.634;2022-07-17T22:21:13;23;93
50957;DHT22;55361;50.876;20.634;2022-07-17T22:28:23;23;93
50957;DHT22;55361;50.876;20.634;2022-07-17T22:35:08;23;93
50957;DHT22;55361;50.876;20.634;2022-07-17T22:42:05;23;93
50957;DHT22;55361;50.876;20.634;2022-07-17T22:49:19;23;93
50957;DHT22;55361;50.876;20.634;2022-07-17T22:56:19;23;93
50957;DHT22;55361;50.876;20.634;2022-07-17T23:07:08;23;94
50957;DHT22;55361;50.876;20.634;2022-07-17T23:14:06;23;94
50957;DHT22;55361;50.876;20.634;2022-07-17T23:21:14;23;94
50957;DHT22;55361;50.876;20.634;2022-07-17T23:28:07;23;94
50957;DHT22;55361;50.876;20.634;2022-07-17T23:35:23;23;94
50957;DHT22;55361;50.876;20.634;2022-07-17T23:42:21;23;94
50957;DHT22;55361;50.876;20.634;2022-07-17T23:49:02;23;94
50957;DHT22;55361;50.876;20.634;2022-07-17T23:56:06;23;94
